Time;durP1;ratioP1;P1;durP2;ratioP2;P2;SDS_P1;SDS_P2;PMS_P1;PMS_P2;Temp;Humidity;BMP_temperature;BMP_pressure;BME280_temperature;BME280_humidity;BME280_pressure;Samples;Min_cycle;Max_cycle;Signal;HPM_P1;HPM_P2
2023/10/04 04:31:15;;;;;;;0.10;0.10;;;11.20;78.10;;;;;;5448807;23;20427;-80
2023/10/04 04:33:41;;;;;;;0.05;0.05;;;11.20;78.20;;;;;;4876485;29;20033;-80
2023/10/04 04:36:16;;;;;;;0.10;0.10;;;11.30;78.20;;;;;;4881195;29;20059;-80
2023/10/04 04:38:42;;;;;;;0.00;0.00;;;11.20;78.20;;;;;;4864955;29;20037;-80
2023/10/04 04:41:12;;;;;;;0.10;0.10;;;11.20;78.40;;;;;;4871575;29;20036;-79
2023/10/04 04:43:39;;;;;;;0.10;0.10;;;11.20;78.40;;;;;;4862920;29;20026;-80
2023/10/04 04:46:12;;;;;;;0.00;0.00;;;11.10;78.90;;;;;;4848528;29;20061;-80
2023/10/04 04:48:39;;;;;;;0.10;0.10;;;10.90;79.20;;;;;;4880925;29;20029;-81
2023/10/04 04:51:11;;;;;;;0.00;0.00;;;11.00;79.40;;;;;;4861345;29;20568;-84
2023/10/04 04:53:45;;;;;;;0.00;0.00;;;11.00;79.00;;;;;;4864177;29;20050;-82
2023/10/04 04:56:13;;;;;;;0.10;0.10;;;11.00;79.50;;;;;;4880941;29;20033;-76
2023/10/04 04:58:39;;;;;;;0.08;0.08;;;11.00;79.50;;;;;;4881283;29;20060;-76
2023/10/04 05:01:09;;;;;;;0.10;0.10;;;11.00;79.70;;;;;;4879987;29;20377;-75
2023/10/04 05:03:35;;;;;;;0.08;0.08;;;10.90;79.60;;;;;;4860567;29;20030;-77
2023/10/04 05:06:00;;;;;;;0.10;0.10;;;10.90;79.90;;;;;;4867637;29;20033;-77
2023/10/04 05:08:26;;;;;;;0.10;0.10;;;10.90;79.80;;;;;;4851748;29;20043;-79
2023/10/04 05:10:55;;;;;;;0.10;0.10;;;11.00;79.40;;;;;;4846208;29;20026;-79
2023/10/04 05:13:21;;;;;;;0.10;0.10;;;11.00;79.40;;;;;;4847272;29;20036;-78
2023/10/04 05:15:49;;;;;;;0.10;0.10;;;11.10;79.10;;;;;;4864807;29;20037;-77
2023/10/04 05:18:17;;;;;;;0.10;0.10;;;11.10;78.80;;;;;;4864790;29;20504;-77
2023/10/04 05:20:44;;;;;;;0.00;0.00;;;11.10;79.00;;;;;;4880672;29;20858;-77
2023/10/04 05:23:09;;;;;;;0.10;0.10;;;11.10;78.80;;;;;;4876705;29;20033;-76
2023/10/04 05:25:36;;;;;;;0.10;0.10;;;11.10;78.70;;;;;;4864276;29;20493;-76
2023/10/04 05:28:09;;;;;;;0.10;0.10;;;11.20;78.50;;;;;;4874470;29;20037;-77
2023/10/04 05:30:37;;;;;;;0.10;0.10;;;11.10;78.90;;;;;;4876287;29;20075;-76
2023/10/04 05:33:03;;;;;;;0.10;0.10;;;11.00;78.70;;;;;;4864137;29;20041;-75
2023/10/04 05:35:29;;;;;;;0.13;0.10;;;11.00;78.90;;;;;;4883329;29;20040;-75
2023/10/04 05:37:55;;;;;;;0.10;0.10;;;11.00;78.80;;;;;;4884709;29;20041;-76
2023/10/04 05:40:27;;;;;;;0.10;0.10;;;10.90;79.00;;;;;;4883028;29;20028;-75
2023/10/04 05:42:54;;;;;;;0.10;0.10;;;10.90;79.10;;;;;;4873670;29;20057;-79
2023/10/04 05:45:21;;;;;;;0.10;0.10;;;10.90;79.00;;;;;;4880176;29;20029;-79
2023/10/04 05:47:48;;;;;;;0.10;0.10;;;11.00;79.00;;;;;;4871561;29;20029;-77
2023/10/04 05:50:21;;;;;;;0.00;0.00;;;11.00;78.70;;;;;;4865892;29;20048;-77
2023/10/04 05:52:50;;;;;;;0.10;0.05;;;11.00;79.10;;;;;;4870115;29;20033;-77
2023/10/04 05:55:20;;;;;;;0.10;0.00;;;11.00;79.20;;;;;;4884320;29;20033;-77
2023/10/04 05:57:47;;;;;;;0.00;0.00;;;11.00;79.40;;;;;;4883807;29;20453;-77
2023/10/04 06:00:28;;;;;;;0.10;0.10;;;11.10;79.40;;;;;;4883886;29;20024;-77
2023/10/04 06:02:54;;;;;;;0.05;0.05;;;11.10;78.80;;;;;;4879964;29;20025;-77
2023/10/04 06:05:24;;;;;;;0.10;0.10;;;11.00;79.20;;;;;;4884311;29;20488;-77
2023/10/04 06:07:51;;;;;;;0.00;0.00;;;11.00;79.40;;;;;;4867583;29;20068;-77
2023/10/04 06:10:18;;;;;;;0.10;0.10;;;11.00;79.20;;;;;;4866707;29;20033;-77
2023/10/04 06:12:46;;;;;;;0.10;0.10;;;11.00;79.50;;;;;;4884079;29;20032;-77
2023/10/04 06:15:18;;;;;;;0.00;0.00;;;10.90;79.40;;;;;;4867564;29;20488;-77
2023/10/04 06:17:45;;;;;;;0.10;0.10;;;11.00;79.50;;;;;;4883360;29;20029;-77
2023/10/04 06:22:59;;;;;;;0.10;0.10;;;11.00;79.40;;;;;;4883674;29;20061;-77
2023/10/04 06:25:26;;;;;;;0.10;0.10;;;11.10;79.10;;;;;;4884143;29;20033;-77
2023/10/04 06:27:54;;;;;;;0.10;0.10;;;11.10;78.90;;;;;;4883936;29;20029;-77
2023/10/04 06:30:22;;;;;;;0.10;0.10;;;11.00;79.00;;;;;;4866625;29;20419;-77
2023/10/04 06:32:49;;;;;;;0.10;0.10;;;11.00;79.50;;;;;;4883591;29;20037;-77
2023/10/04 06:35:16;;;;;;;0.10;0.10;;;11.00;79.20;;;;;;4867052;29;20055;-77
2023/10/04 06:37:41;;;;;;;0.10;0.10;;;11.10;79.30;;;;;;4883215;29;21186;-77
2023/10/04 06:40:15;;;;;;;0.10;0.10;;;11.10;79.20;;;;;;4867012;29;20029;-77
2023/10/04 06:42:43;;;;;;;0.10;0.10;;;11.10;79.00;;;;;;4883283;29;20025;-77
2023/10/04 06:45:09;;;;;;;0.10;0.10;;;11.10;79.40;;;;;;4882497;29;20077;-77
2023/10/04 06:47:35;;;;;;;0.10;0.10;;;11.20;79.40;;;;;;4883305;29;20087;-77
2023/10/04 06:50:02;;;;;;;0.10;0.10;;;11.20;79.60;;;;;;4883560;29;20045;-77
2023/10/04 06:52:28;;;;;;;0.15;0.10;;;11.20;79.70;;;;;;4850562;29;20033;-77
2023/10/04 06:54:53;;;;;;;0.10;0.10;;;11.30;79.50;;;;;;4864806;29;20162;-77
2023/10/04 06:57:20;;;;;;;0.05;0.05;;;11.20;79.60;;;;;;4864737;29;20122;-76
2023/10/04 06:59:46;;;;;;;0.10;0.10;;;11.20;79.80;;;;;;4866197;29;20481;-77
2023/10/04 07:02:12;;;;;;;0.10;0.10;;;11.20;80.00;;;;;;4883418;29;20072;-77
2023/10/04 07:04:37;;;;;;;0.10;0.10;;;11.20;79.80;;;;;;4883329;29;20043;-77
2023/10/04 07:07:03;;;;;;;0.05;0.05;;;11.30;79.80;;;;;;4882687;29;20445;-77
2023/10/04 07:09:29;;;;;;;0.10;0.10;;;11.30;79.40;;;;;;4883279;29;20056;-77
2023/10/04 07:11:55;;;;;;;0.10;0.10;;;11.40;79.30;;;;;;4882842;29;20058;-77
2023/10/04 07:14:21;;;;;;;0.10;0.10;;;11.40;79.70;;;;;;4872228;29;20041;-77
2023/10/04 07:16:46;;;;;;;0.10;0.10;;;11.50;79.50;;;;;;4853696;29;20025;-77
2023/10/04 07:19:14;;;;;;;0.20;0.10;;;11.70;79.20;;;;;;4863065;29;20038;-77
2023/10/04 07:21:40;;;;;;;0.10;0.10;;;11.70;79.50;;;;;;4870765;29;20020;-77
2023/10/04 07:24:06;;;;;;;0.10;0.10;;;11.80;79.50;;;;;;4882468;29;20045;-77
2023/10/04 07:26:35;;;;;;;0.10;0.10;;;11.80;79.10;;;;;;4882728;29;20537;-77
2023/10/04 07:29:01;;;;;;;0.00;0.00;;;11.90;79.00;;;;;;4863223;29;20088;-77
2023/10/04 07:31:27;;;;;;;0.10;0.10;;;11.90;78.80;;;;;;4866512;29;20057;-77
2023/10/04 07:33:52;;;;;;;0.10;0.10;;;12.00;78.80;;;;;;4864877;29;20041;-77
2023/10/04 07:36:19;;;;;;;0.00;0.00;;;12.00;78.90;;;;;;4865325;29;20036;-77
2023/10/04 07:38:45;;;;;;;0.10;0.10;;;12.00;78.80;;;;;;4882673;29;20119;-77
2023/10/04 07:41:11;;;;;;;0.08;0.08;;;12.00;79.10;;;;;;4865806;29;20025;-77
2023/10/04 07:43:40;;;;;;;0.00;0.00;;;11.90;79.10;;;;;;4874697;29;20571;-77
2023/10/04 07:46:05;;;;;;;0.10;0.10;;;11.80;79.20;;;;;;4863642;29;20033;-77
2023/10/04 07:48:31;;;;;;;0.10;0.10;;;11.80;79.40;;;;;;4847470;29;20037;-76
2023/10/04 07:50:57;;;;;;;0.13;0.13;;;11.90;79.40;;;;;;4877405;29;20056;-77
2023/10/04 07:53:22;;;;;;;0.10;0.10;;;12.00;79.10;;;;;;4882427;29;20573;-77
2023/10/04 07:55:51;;;;;;;0.00;0.00;;;12.00;79.10;;;;;;4865196;29;20037;-76
2023/10/04 07:58:17;;;;;;;0.10;0.10;;;12.00;79.40;;;;;;4881983;29;20374;-77
2023/10/04 08:00:43;;;;;;;0.10;0.10;;;12.10;79.00;;;;;;4882216;29;20072;-77
2023/10/04 08:03:09;;;;;;;0.05;0.05;;;12.20;79.00;;;;;;4882085;29;20053;-77
2023/10/04 08:05:36;;;;;;;0.10;0.10;;;12.40;78.70;;;;;;4882144;29;20029;-77
2023/10/04 08:08:03;;;;;;;0.10;0.10;;;12.50;79.00;;;;;;4862224;29;20033;-77
2023/10/04 08:10:32;;;;;;;0.10;0.10;;;12.80;78.50;;;;;;4863674;29;20511;-77
2023/10/04 08:13:02;;;;;;;0.10;0.10;;;12.90;78.30;;;;;;4863548;29;20033;-77
2023/10/04 08:15:29;;;;;;;0.10;0.10;;;13.00;78.30;;;;;;4880136;29;20491;-77
2023/10/04 08:17:56;;;;;;;0.08;0.08;;;13.10;78.30;;;;;;4881896;29;20076;-77
2023/10/04 08:20:24;;;;;;;0.10;0.10;;;13.20;78.30;;;;;;4881520;29;20029;-77
2023/10/04 08:22:50;;;;;;;0.10;0.10;;;13.40;78.50;;;;;;4882128;29;20084;-77
2023/10/04 08:25:18;;;;;;;0.13;0.10;;;13.60;78.00;;;;;;4881877;29;20089;-77
2023/10/04 08:27:45;;;;;;;0.13;0.13;;;13.70;78.30;;;;;;4881617;29;20036;-77
2023/10/04 08:30:12;;;;;;;0.10;0.10;;;13.80;77.90;;;;;;4881958;29;20033;-78
2023/10/04 08:32:42;;;;;;;0.03;0.03;;;14.00;77.70;;;;;;4881628;29;20044;-77
2023/10/04 08:35:33;;;;;;;0.10;0.10;;;14.00;77.70;;;;;;4881111;29;20044;-77
2023/10/04 08:38:00;;;;;;;0.10;0.10;;;14.00;77.70;;;;;;4881882;29;20108;-77
2023/10/04 08:40:27;;;;;;;0.10;0.10;;;14.00;77.60;;;;;;4881916;29;20138;-77
2023/10/04 08:42:55;;;;;;;0.00;0.00;;;13.90;77.20;;;;;;4881707;29;20032;-77
2023/10/04 08:45:22;;;;;;;0.10;0.10;;;14.00;77.00;;;;;;4881033;29;20029;-77
2023/10/04 08:47:52;;;;;;;0.10;0.10;;;14.00;77.40;;;;;;4881619;29;20056;-77
2023/10/04 08:50:46;;;;;;;0.10;0.10;;;14.00;77.40;;;;;;4871073;29;20029;-77
2023/10/04 08:53:55;;;;;;;0.10;0.10;;;14.20;77.30;;;;;;4822819;29;20048;-77
2023/10/04 08:56:26;;;;;;;0.10;0.10;;;14.20;77.40;;;;;;4863243;29;20086;-78
2023/10/04 08:58:52;;;;;;;0.10;0.10;;;14.30;77.40;;;;;;4863653;29;20485;-77
2023/10/04 09:01:20;;;;;;;0.03;0.03;;;14.30;77.70;;;;;;4863055;29;20049;-77
2023/10/04 09:03:47;;;;;;;0.10;0.10;;;14.30;77.30;;;;;;4879501;29;20400;-76
2023/10/04 09:06:16;;;;;;;0.10;0.10;;;14.30;77.70;;;;;;4864410;29;20077;-77
2023/10/04 09:08:44;;;;;;;0.10;0.10;;;14.30;77.20;;;;;;4869984;29;20033;-77
2023/10/04 09:11:15;;;;;;;0.10;0.10;;;14.30;77.30;;;;;;4866618;29;20033;-77
2023/10/04 09:13:49;;;;;;;0.10;0.10;;;14.20;76.90;;;;;;4867162;29;20070;-77
2023/10/04 09:16:28;;;;;;;0.10;0.10;;;14.30;76.80;;;;;;4849857;29;20041;-77
2023/10/04 09:19:06;;;;;;;0.10;0.10;;;14.30;77.20;;;;;;4868790;29;20025;-76
2023/10/04 09:21:37;;;;;;;0.10;0.10;;;14.30;77.20;;;;;;4877556;29;20180;-77
2023/10/04 09:24:14;;;;;;;0.10;0.10;;;14.30;77.00;;;;;;4885225;29;20405;-77
2023/10/04 09:26:49;;;;;;;0.10;0.10;;;14.20;77.50;;;;;;4864828;29;20029;-77
2023/10/04 09:29:15;;;;;;;0.10;0.10;;;14.30;77.90;;;;;;4866567;29;20390;-77
2023/10/04 09:31:53;;;;;;;0.10;0.10;;;14.30;78.00;;;;;;4865657;29;20061;-77
2023/10/04 09:34:19;;;;;;;0.10;0.10;;;14.50;78.40;;;;;;4883928;29;20037;-77
2023/10/04 09:36:45;;;;;;;0.10;0.10;;;14.60;77.90;;;;;;4863787;29;20077;-77
2023/10/04 09:39:16;;;;;;;0.10;0.10;;;14.70;78.00;;;;;;4866197;29;20482;-77
2023/10/04 09:41:43;;;;;;;0.00;0.00;;;14.80;78.00;;;;;;4854408;29;20029;-77
2023/10/04 09:44:29;;;;;;;0.10;0.10;;;14.90;78.00;;;;;;4870598;29;20028;-77
2023/10/04 09:47:00;;;;;;;0.10;0.10;;;15.00;78.20;;;;;;4858717;29;20511;-76
2023/10/04 09:49:33;;;;;;;0.10;0.10;;;15.10;78.50;;;;;;4875562;29;20043;-78
2023/10/04 09:52:06;;;;;;;0.15;0.10;;;15.20;77.60;;;;;;4874467;29;20493;-77
2023/10/04 09:54:33;;;;;;;0.10;0.10;;;15.20;77.20;;;;;;4874192;29;20033;-77
2023/10/04 09:57:01;;;;;;;0.10;0.10;;;15.20;76.80;;;;;;4857863;29;20032;-77
2023/10/04 09:59:28;;;;;;;0.00;0.00;;;15.30;76.90;;;;;;4875889;29;20077;-77
2023/10/04 10:01:59;;;;;;;0.10;0.10;;;15.50;76.50;;;;;;4875123;29;20073;-77
2023/10/04 10:04:28;;;;;;;0.10;0.10;;;15.50;76.40;;;;;;4872700;29;20115;-77
2023/10/04 10:07:11;;;;;;;0.00;0.00;;;15.60;76.00;;;;;;4876119;29;20382;-77
2023/10/04 10:10:04;;;;;;;0.08;0.08;;;15.70;77.30;;;;;;4874315;29;20090;-77
2023/10/04 10:12:31;;;;;;;0.10;0.10;;;15.80;77.70;;;;;;4875474;29;20477;-76
2023/10/04 10:15:04;;;;;;;0.00;0.00;;;15.90;76.30;;;;;;4858778;29;20512;-77
2023/10/04 10:17:31;;;;;;;0.10;0.10;;;16.00;76.30;;;;;;4879064;29;20393;-77
2023/10/04 10:20:00;;;;;;;0.10;0.10;;;16.00;76.10;;;;;;4883310;29;20108;-77
2023/10/04 10:22:26;;;;;;;0.10;0.10;;;16.10;75.80;;;;;;4883612;29;20103;-77
2023/10/04 10:24:59;;;;;;;0.10;0.10;;;16.10;75.40;;;;;;4882688;29;20544;-77
2023/10/04 10:27:28;;;;;;;0.10;0.10;;;16.20;75.30;;;;;;4881575;29;20033;-76
2023/10/04 10:29:57;;;;;;;0.00;0.00;;;16.30;76.10;;;;;;4866494;29;20543;-77
2023/10/04 10:32:24;;;;;;;0.10;0.10;;;16.40;76.00;;;;;;4880400;29;20044;-77
2023/10/04 10:34:52;;;;;;;0.10;0.10;;;16.50;75.20;;;;;;4883145;29;20039;-77
2023/10/04 10:37:22;;;;;;;0.10;0.10;;;16.50;73.60;;;;;;4882412;29;20052;-76
2023/10/04 10:39:56;;;;;;;0.10;0.10;;;16.50;73.20;;;;;;4883672;29;20025;-76
2023/10/04 10:42:23;;;;;;;0.10;0.10;;;16.60;72.70;;;;;;4883599;29;20021;-76
2023/10/04 10:44:50;;;;;;;0.10;0.10;;;16.60;73.30;;;;;;4883064;29;20035;-76
2023/10/04 10:47:25;;;;;;;0.00;0.00;;;16.70;73.30;;;;;;4883457;29;20020;-76
2023/10/04 10:50:04;;;;;;;0.10;0.10;;;16.80;70.90;;;;;;4883417;29;20036;-76
2023/10/04 10:52:34;;;;;;;0.00;0.00;;;16.90;69.90;;;;;;4883152;29;20033;-77
2023/10/04 10:55:14;;;;;;;0.00;0.00;;;17.00;70.60;;;;;;4883341;29;20033;-77
2023/10/04 10:57:43;;;;;;;0.00;0.00;;;17.10;69.60;;;;;;4878733;29;20033;-76
2023/10/04 11:00:56;;;;;;;0.00;0.00;;;17.20;71.20;;;;;;4864837;29;20040;-77
2023/10/04 11:02:55;;;;;;;0.10;0.10;;;17.20;68.20;;;;;;4874061;29;20104;-77
2023/10/04 11:05:22;;;;;;;0.00;0.00;;;17.30;67.30;;;;;;4882911;29;20029;-77
2023/10/04 11:07:49;;;;;;;0.10;0.10;;;17.30;67.90;;;;;;4883147;29;20037;-77
2023/10/04 11:10:16;;;;;;;0.10;0.10;;;17.50;69.30;;;;;;4873911;29;20029;-77
2023/10/04 11:12:43;;;;;;;0.10;0.10;;;17.60;65.60;;;;;;4883171;29;20029;-77
2023/10/04 11:15:09;;;;;;;0.08;0.08;;;17.60;64.60;;;;;;4882561;29;20033;-77
2023/10/04 11:17:37;;;;;;;0.00;0.00;;;17.70;63.00;;;;;;4883104;29;20544;-77
2023/10/04 11:20:09;;;;;;;0.00;0.00;;;17.50;63.90;;;;;;4881834;29;20060;-77
2023/10/04 11:22:36;;;;;;;0.10;0.10;;;17.50;62.50;;;;;;4882942;29;20029;-77
2023/10/04 11:25:03;;;;;;;0.10;0.10;;;17.50;62.10;;;;;;4882431;29;20028;-77
2023/10/04 11:27:28;;;;;;;0.00;0.00;;;17.70;62.60;;;;;;4882891;29;20037;-77
2023/10/04 11:29:55;;;;;;;0.10;0.10;;;17.60;61.60;;;;;;4882375;29;20093;-77
2023/10/04 11:32:24;;;;;;;0.10;0.10;;;17.60;62.30;;;;;;4881152;29;20151;-77
2023/10/04 11:34:50;;;;;;;0.00;0.00;;;17.70;62.10;;;;;;4882029;29;20033;-77
2023/10/04 11:37:16;;;;;;;0.10;0.10;;;17.70;61.10;;;;;;4882269;29;20063;-76
2023/10/04 11:39:44;;;;;;;0.03;0.03;;;17.80;62.20;;;;;;4882740;29;20028;-76
2023/10/04 11:42:19;;;;;;;0.00;0.00;;;17.90;61.70;;;;;;4882471;29;20029;-76
2023/10/04 11:44:46;;;;;;;0.00;0.00;;;18.00;61.40;;;;;;4880361;29;20089;-77
2023/10/04 11:47:12;;;;;;;0.10;0.10;;;18.00;61.40;;;;;;4863283;29;20030;-76
2023/10/04 11:49:40;;;;;;;0.10;0.10;;;18.10;60.90;;;;;;4878073;29;20030;-76
2023/10/04 11:52:06;;;;;;;0.10;0.10;;;18.20;61.80;;;;;;4865938;29;20033;-77
2023/10/04 11:54:47;;;;;;;0.00;0.00;;;18.30;61.50;;;;;;4882364;29;20116;-77
2023/10/04 11:57:23;;;;;;;0.05;0.05;;;18.20;60.30;;;;;;4881246;29;20037;-77
2023/10/04 11:59:49;;;;;;;0.10;0.10;;;18.30;61.60;;;;;;4872842;29;20029;-76
2023/10/04 12:02:15;;;;;;;0.00;0.00;;;18.30;61.30;;;;;;4868671;29;20041;-77
2023/10/04 12:04:41;;;;;;;0.10;0.10;;;18.40;61.20;;;;;;4879218;29;20036;-77
2023/10/04 12:07:07;;;;;;;0.00;0.00;;;18.40;61.10;;;;;;4878575;29;20037;-77
2023/10/04 12:09:34;;;;;;;0.10;0.10;;;18.50;60.90;;;;;;4871754;29;20045;-77
2023/10/04 12:12:05;;;;;;;0.00;0.00;;;18.50;60.80;;;;;;4875921;29;20021;-77
2023/10/04 12:14:31;;;;;;;0.00;0.00;;;18.50;61.10;;;;;;4879298;29;20033;-77
2023/10/04 12:17:02;;;;;;;0.10;0.10;;;18.50;59.30;;;;;;4880783;29;20025;-77
2023/10/04 12:19:30;;;;;;;0.10;0.10;;;18.60;59.40;;;;;;4878324;29;20405;-76
2023/10/04 12:21:56;;;;;;;0.08;0.08;;;18.50;59.70;;;;;;4879975;29;20032;-77
2023/10/04 12:24:23;;;;;;;0.05;0.05;;;18.50;58.50;;;;;;4875857;29;20021;-77
2023/10/04 12:26:55;;;;;;;0.10;0.10;;;18.60;59.50;;;;;;4879883;29;20044;-76
2023/10/04 12:29:21;;;;;;;0.10;0.10;;;18.60;58.80;;;;;;4878945;29;20077;-77
2023/10/04 12:31:47;;;;;;;0.00;0.00;;;18.70;58.30;;;;;;4879547;29;20049;-77
2023/10/04 12:34:14;;;;;;;0.00;0.00;;;18.80;59.40;;;;;;4876972;29;20072;-77
2023/10/04 12:36:39;;;;;;;0.00;0.00;;;18.80;58.70;;;;;;4881217;29;20044;-77
2023/10/04 12:39:06;;;;;;;0.00;0.00;;;18.80;57.20;;;;;;4864497;29;20037;-77
2023/10/04 12:41:33;;;;;;;0.00;0.00;;;18.80;56.90;;;;;;4878444;29;20476;-77
2023/10/04 12:43:58;;;;;;;0.10;0.10;;;18.80;57.90;;;;;;4880402;29;20017;-77
2023/10/04 12:46:26;;;;;;;0.00;0.00;;;18.80;58.00;;;;;;4874743;29;20037;-77
2023/10/04 12:48:53;;;;;;;0.00;0.00;;;18.90;57.40;;;;;;4878553;29;20080;-77
2023/10/04 12:51:18;;;;;;;0.10;0.10;;;18.90;56.00;;;;;;4864945;29;20129;-77
2023/10/04 12:53:45;;;;;;;0.00;0.00;;;18.90;56.40;;;;;;4864631;29;20056;-77
2023/10/04 12:56:11;;;;;;;0.00;0.00;;;19.00;56.40;;;;;;4881386;29;20054;-77
2023/10/04 12:58:37;;;;;;;0.00;0.00;;;19.00;56.40;;;;;;4861649;29;20021;-77
2023/10/04 13:01:05;;;;;;;0.00;0.00;;;19.10;57.90;;;;;;4867544;29;20037;-77
2023/10/04 13:03:31;;;;;;;0.00;0.00;;;19.10;56.30;;;;;;4870326;29;20049;-77
2023/10/04 13:05:58;;;;;;;0.15;0.10;;;19.10;57.10;;;;;;4853215;29;20044;-78
2023/10/04 13:08:25;;;;;;;0.00;0.00;;;19.10;56.40;;;;;;4877744;29;20029;-78
2023/10/04 13:10:51;;;;;;;0.10;0.10;;;19.20;56.60;;;;;;4876643;29;20124;-78
2023/10/04 13:13:18;;;;;;;0.00;0.00;;;19.20;56.40;;;;;;4880704;29;20057;-77
2023/10/04 13:15:44;;;;;;;0.10;0.10;;;19.30;55.80;;;;;;4880922;29;20033;-78
2023/10/04 13:18:11;;;;;;;0.10;0.10;;;19.40;54.30;;;;;;4861928;29;20033;-77
2023/10/04 13:20:39;;;;;;;0.00;0.00;;;19.40;54.00;;;;;;4860620;29;20551;-78
2023/10/04 13:23:05;;;;;;;0.10;0.10;;;19.20;55.00;;;;;;4880055;29;20032;-80
2023/10/04 13:25:32;;;;;;;0.10;0.10;;;19.10;56.10;;;;;;4864203;29;20040;-78
2023/10/04 13:28:00;;;;;;;0.00;0.00;;;18.90;55.50;;;;;;4880289;29;20548;-77
2023/10/04 13:30:27;;;;;;;0.10;0.10;;;19.10;55.40;;;;;;4880424;29;20404;-77
2023/10/04 13:32:53;;;;;;;0.00;0.00;;;19.10;54.80;;;;;;4880553;29;20029;-77
2023/10/04 13:35:20;;;;;;;0.10;0.10;;;19.20;55.50;;;;;;4880718;29;20077;-78
2023/10/04 13:37:51;;;;;;;0.00;0.00;;;19.20;56.30;;;;;;4878281;29;20073;-77
2023/10/04 13:40:21;;;;;;;0.00;0.00;;;19.30;55.20;;;;;;4877503;29;20412;-77
2023/10/04 13:42:50;;;;;;;0.10;0.10;;;19.30;56.60;;;;;;4863382;29;20025;-78
2023/10/04 13:45:19;;;;;;;0.00;0.00;;;19.40;56.40;;;;;;4880743;29;20071;-77
2023/10/04 13:47:48;;;;;;;0.00;0.00;;;19.50;55.30;;;;;;4877408;29;20048;-77
2023/10/04 13:50:14;;;;;;;0.00;0.00;;;19.50;54.80;;;;;;4862345;29;20030;-77
2023/10/04 13:52:40;;;;;;;0.00;0.00;;;19.60;54.40;;;;;;4879685;29;20068;-78
2023/10/04 13:55:09;;;;;;;0.10;0.10;;;19.70;53.20;;;;;;4867828;29;20051;-77
2023/10/04 13:57:38;;;;;;;0.10;0.10;;;19.70;51.20;;;;;;4884602;29;20049;-78
2023/10/04 14:00:05;;;;;;;0.00;0.00;;;19.60;51.60;;;;;;4874567;29;20037;-78
2023/10/04 14:02:30;;;;;;;0.00;0.00;;;19.70;51.90;;;;;;4866435;29;20041;-78
2023/10/04 14:04:56;;;;;;;0.00;0.00;;;19.80;51.80;;;;;;4883146;29;20029;-77
2023/10/04 14:07:22;;;;;;;0.00;0.00;;;19.80;51.60;;;;;;4884009;29;20792;-77
2023/10/04 14:09:48;;;;;;;0.00;0.00;;;19.80;52.00;;;;;;4883970;29;20492;-77
2023/10/04 14:12:14;;;;;;;0.00;0.00;;;19.90;52.40;;;;;;4865097;29;20021;-77
2023/10/04 14:14:39;;;;;;;0.00;0.00;;;19.80;50.40;;;;;;4866768;29;20037;-78
2023/10/04 14:17:05;;;;;;;0.10;0.10;;;19.80;51.10;;;;;;4880820;29;20036;-78
2023/10/04 14:19:32;;;;;;;0.00;0.00;;;19.80;51.40;;;;;;4883454;29;20025;-77
2023/10/04 14:21:58;;;;;;;0.10;0.10;;;19.80;51.10;;;;;;4878794;29;20514;-80
2023/10/04 14:24:30;;;;;;;0.00;0.00;;;19.70;49.10;;;;;;4866581;29;20033;-80
2023/10/04 14:27:01;;;;;;;0.00;0.00;;;19.70;51.10;;;;;;4883622;29;20029;-78
2023/10/04 14:29:30;;;;;;;0.00;0.00;;;19.80;51.40;;;;;;4866266;29;20411;-80
2023/10/04 14:31:59;;;;;;;0.10;0.10;;;19.80;50.80;;;;;;4878786;29;20136;-80
2023/10/04 14:34:25;;;;;;;0.00;0.00;;;19.90;51.30;;;;;;4883114;29;20489;-80
2023/10/04 14:36:50;;;;;;;0.00;0.00;;;19.90;51.20;;;;;;4866898;29;20097;-80
2023/10/04 14:39:21;;;;;;;0.00;0.00;;;19.80;51.00;;;;;;4882680;29;20032;-78
2023/10/04 14:41:47;;;;;;;0.10;0.10;;;19.80;50.70;;;;;;4866445;29;20077;-78
2023/10/04 14:44:12;;;;;;;0.10;0.10;;;19.80;51.90;;;;;;4881586;29;20033;-85
2023/10/04 14:46:38;;;;;;;0.10;0.10;;;19.90;51.70;;;;;;4862821;29;20029;-78
2023/10/04 14:49:05;;;;;;;0.00;0.00;;;19.90;51.30;;;;;;4882772;29;20044;-78
2023/10/04 14:51:32;;;;;;;0.00;0.00;;;19.80;51.10;;;;;;4881741;29;20029;-79
2023/10/04 14:53:58;;;;;;;0.10;0.10;;;19.80;51.80;;;;;;4881404;29;20040;-78
2023/10/04 14:56:24;;;;;;;0.00;0.00;;;19.70;51.20;;;;;;4864875;29;20484;-78
2023/10/04 14:58:50;;;;;;;0.00;0.00;;;19.70;51.60;;;;;;4882244;29;20137;-78
2023/10/04 15:01:17;;;;;;;0.00;0.00;;;19.70;51.50;;;;;;4865584;29;20489;-78
2023/10/04 15:03:43;;;;;;;0.00;0.00;;;19.70;51.50;;;;;;4881379;29;20100;-78
2023/10/04 15:06:18;;;;;;;0.10;0.10;;;19.70;51.50;;;;;;4865026;29;20064;-78
2023/10/04 15:08:44;;;;;;;0.03;0.03;;;19.60;52.10;;;;;;4864177;29;20044;-78
2023/10/04 15:11:11;;;;;;;0.08;0.08;;;19.50;52.10;;;;;;4881613;29;20096;-78
2023/10/04 15:13:37;;;;;;;0.00;0.00;;;19.40;52.50;;;;;;4882384;29;20049;-79
2023/10/04 15:16:04;;;;;;;0.00;0.00;;;19.30;51.60;;;;;;4879372;29;20068;-78
2023/10/04 15:18:30;;;;;;;0.10;0.10;;;19.30;51.70;;;;;;4878918;29;20056;-79
2023/10/04 15:20:56;;;;;;;0.00;0.00;;;19.30;52.10;;;;;;4880711;29;20032;-78
2023/10/04 15:23:21;;;;;;;0.00;0.00;;;19.20;52.50;;;;;;4880743;29;20025;-78
2023/10/04 15:25:49;;;;;;;0.00;0.00;;;19.20;53.00;;;;;;4881657;29;20033;-78
2023/10/04 15:28:16;;;;;;;0.00;0.00;;;19.20;53.20;;;;;;4879952;29;20505;-78
2023/10/04 15:30:42;;;;;;;0.00;0.00;;;19.10;51.50;;;;;;4882639;29;20052;-78
2023/10/04 15:33:08;;;;;;;0.03;0.03;;;19.10;52.40;;;;;;4882321;29;20032;-78
2023/10/04 15:35:35;;;;;;;0.10;0.10;;;19.10;51.90;;;;;;4882422;29;20036;-78
2023/10/04 15:38:01;;;;;;;0.00;0.00;;;19.10;52.30;;;;;;4865424;29;20491;-78
2023/10/04 15:40:31;;;;;;;0.10;0.10;;;19.20;52.10;;;;;;4870508;29;20481;-78
2023/10/04 15:43:01;;;;;;;0.00;0.00;;;19.20;52.50;;;;;;4865230;29;20116;-78
2023/10/04 15:45:28;;;;;;;0.00;0.00;;;19.30;53.00;;;;;;4881050;29;20036;-78
2023/10/04 15:47:54;;;;;;;0.10;0.10;;;19.30;54.20;;;;;;4881556;29;20029;-79
2023/10/04 15:50:21;;;;;;;0.00;0.00;;;19.30;53.40;;;;;;4878888;29;20029;-78
2023/10/04 15:52:47;;;;;;;0.00;0.00;;;19.30;52.00;;;;;;4877271;29;20054;-78
2023/10/04 15:55:14;;;;;;;0.00;0.00;;;19.30;52.10;;;;;;4865028;29;20496;-79
2023/10/04 15:57:43;;;;;;;0.10;0.10;;;19.30;52.10;;;;;;4879455;29;20029;-78
2023/10/04 16:00:23;;;;;;;0.00;0.00;;;19.20;52.10;;;;;;4879107;29;20025;-78
2023/10/04 16:02:50;;;;;;;0.00;0.00;;;19.20;53.10;;;;;;4878640;29;20032;-80
2023/10/04 16:05:16;;;;;;;0.00;0.00;;;19.20;52.80;;;;;;4863146;29;20081;-78
2023/10/04 16:07:41;;;;;;;0.10;0.10;;;19.10;52.60;;;;;;4862100;29;20466;-78
2023/10/04 16:10:07;;;;;;;0.00;0.00;;;19.00;52.50;;;;;;4880340;29;20053;-82
2023/10/04 16:12:34;;;;;;;0.00;0.00;;;19.00;54.60;;;;;;4864160;29;20033;-79
2023/10/04 16:15:03;;;;;;;0.10;0.10;;;18.90;54.70;;;;;;4880564;29;20036;-80
2023/10/04 16:17:29;;;;;;;0.00;0.00;;;18.90;53.00;;;;;;4881325;29;20027;-80
2023/10/04 16:19:54;;;;;;;0.00;0.00;;;18.90;53.70;;;;;;4877906;29;20116;-80
2023/10/04 16:22:20;;;;;;;0.00;0.00;;;18.90;55.00;;;;;;4873294;29;20025;-78
2023/10/04 16:24:46;;;;;;;0.00;0.00;;;18.90;55.50;;;;;;4877076;29;20033;-78
2023/10/04 16:27:11;;;;;;;0.08;0.08;;;18.90;55.70;;;;;;4876523;29;20033;-78
2023/10/04 16:29:37;;;;;;;0.00;0.00;;;18.90;56.50;;;;;;4878232;29;20441;-78
2023/10/04 16:32:03;;;;;;;0.00;0.00;;;18.80;56.40;;;;;;4869237;29;20500;-78
2023/10/04 16:34:30;;;;;;;0.00;0.00;;;18.80;54.50;;;;;;4874285;29;20409;-78
2023/10/04 16:36:56;;;;;;;0.00;0.00;;;18.80;55.30;;;;;;4860320;29;20033;-78
2023/10/04 16:39:23;;;;;;;0.00;0.00;;;18.80;55.80;;;;;;4880527;29;20036;-78
2023/10/04 16:41:49;;;;;;;0.00;0.00;;;18.80;55.10;;;;;;4860781;29;20029;-78
2023/10/04 16:44:15;;;;;;;0.00;0.00;;;18.70;56.10;;;;;;4863467;29;20031;-78
2023/10/04 16:46:41;;;;;;;0.00;0.00;;;18.60;56.40;;;;;;4880224;29;20129;-79
2023/10/04 16:49:09;;;;;;;0.00;0.00;;;18.60;56.60;;;;;;4880587;29;20055;-78
2023/10/04 16:51:38;;;;;;;0.00;0.00;;;18.50;57.20;;;;;;4880300;29;20025;-78
2023/10/04 16:54:03;;;;;;;0.00;0.00;;;18.40;58.10;;;;;;4880288;29;20088;-78
2023/10/04 16:56:29;;;;;;;0.28;0.10;;;18.30;58.90;;;;;;4878785;29;20025;-77
2023/10/04 16:58:55;;;;;;;0.00;0.00;;;18.20;59.50;;;;;;4878932;29;20021;-77
2023/10/04 17:01:21;;;;;;;0.08;0.08;;;18.20;60.00;;;;;;4874722;29;20481;-77
2023/10/04 17:03:47;;;;;;;0.00;0.00;;;18.10;59.50;;;;;;4878010;29;20017;-77
2023/10/04 17:06:17;;;;;;;0.00;0.00;;;18.10;59.80;;;;;;4870128;29;20028;-77
2023/10/04 17:08:43;;;;;;;0.00;0.00;;;18.00;59.80;;;;;;4880297;29;20033;-77
2023/10/04 17:11:09;;;;;;;0.00;0.00;;;18.00;60.30;;;;;;4880801;29;20065;-77
2023/10/04 17:13:34;;;;;;;0.00;0.00;;;17.80;60.50;;;;;;4881137;29;20467;-77
2023/10/04 17:16:00;;;;;;;0.10;0.00;;;17.70;60.70;;;;;;4863210;29;20052;-77
2023/10/04 17:18:27;;;;;;;0.00;0.00;;;17.70;61.50;;;;;;4845586;29;20025;-77
2023/10/04 17:20:53;;;;;;;0.10;0.10;;;17.60;60.60;;;;;;4864584;29;20029;-77
2023/10/04 17:23:19;;;;;;;0.00;0.00;;;17.60;60.80;;;;;;4863693;29;20100;-76
2023/10/04 17:25:44;;;;;;;0.00;0.00;;;17.40;61.00;;;;;;4854773;29;20029;-77